Terminal Aerodrome Forecast
Issued by NWS

Home | Current Version | Previous Version | Text Only | Print | Product List | Glossary On
Versions: 1 2 3 4 5 6 7 8 9 10 11 12 13 14 15 16 17 18 19
000
FTUS44 KTSA 280000 AAA
TAFMLC
TAF AMD
KMLC 280028Z 2800/2824 05006KT P6SM OVC050
      TEMPO 2800/2803 3SM -SN OVC015
     FM280300 09007KT P6SM OVC015
     FM281200 VRB05KT 3SM -SN OVC010=

USA.gov is the U.S. government's official web portal to all federal, state and local government web resources and services.